Latest Weather Observations for Toowoomba

IDQ60901

Issued at 11:51 pm EST Sunday 25 October 2020 (issued every 10 minutes, with the page automatically refreshed every 10 minutes)

About weather observations | Map of Brisbane area stations | Latest observations for Brisbane area | Other Formats
Station Details ID: 041529 Name: TOOWOOMBA AIRPORT Lat: -27.54 Lon: 151.91 Height: 640.9 m
Data from the previous 72 hours. | See also: Recent months at Toowoomba
Date/Time
EST
Temp
°C
App
Temp
°C
Dew
Point
°C
Rel
Hum
%
Delta-T
°C
Wind Press
QNH
hPa
Press
MSL
hPa
Rain since
9am
mm
Dir  Spd
km/h
Gust
km/h
Spd
kts
Gust
kts
25/11:42pm 15.4 14.7 15.4 100 0.0 SW 13 15 7 8 1014.3 1011.8 31.6
25/11:30pm 15.3 14.2 15.3 100 0.0 SW 15 19 8 10 1014.4 1011.9 31.4
25/11:14pm 15.3 14.9 15.3 100 0.0 SW 11 13 6 7 1014.2 1011.7 31.0
25/11:00pm 15.2 14.8 15.2 100 0.0 SW 11 15 6 8 1014.4 1011.9 30.8
25/10:30pm 15.1 14.3 15.1 100 0.0 SSW 13 17 7 9 1014.3 1011.8 30.8
25/10:00pm 14.7 14.5 14.7 100 0.0 SW 9 11 5 6 1014.6 1012.1 30.8
25/09:30pm 14.8 13.5 14.8 100 0.0 N 15 19 8 10 1015.4 1012.9 29.0
25/09:18pm 15.3 15.3 15.3 100 0.0 NW 9 13 5 7 1014.9 1012.5 27.8
25/09:00pm 15.3 15.3 15.3 100 0.0 WNW 9 13 5 7 1014.9 1012.5 27.2
25/08:58pm 15.3 15.3 15.3 100 0.0 WNW 9 13 5 7 1014.9 1012.5 27.0
25/08:30pm 15.3 13.2 15.3 100 0.0 WSW 20 28 11 15 1014.3 1011.8 23.2
25/08:13pm 15.8 12.3 15.6 99 0.1 WSW 28 37 15 20 1014.0 1011.5 14.6
25/08:05pm 17.4 15.9 16.4 94 0.6 NE 19 37 10 20 1013.7 1011.2 13.8
25/08:00pm 17.8 17.6 17.5 98 0.2 E 15 19 8 10 1013.0 1010.5 13.8
25/07:47pm 17.8 16.8 16.7 93 0.7 ENE 17 20 9 11 1012.7 1010.2 13.8
25/07:30pm 18.4 16.9 16.4 88 1.2 NNE 19 22 10 12 1013.2 1010.7 13.6
25/07:23pm 18.6 17.1 16.2 86 1.5 NE 19 28 10 15 1013.3 1010.8 12.2
25/07:00pm 19.1 17.9 16.0 82 1.9 ENE 17 22 9 12 1012.8 1010.3 10.8
25/06:30pm 20.1 19.2 14.9 72 3.1 NNE 13 15 7 8 1012.5 1010.0 10.8
25/06:00pm 19.4 22.3 18.1 92 0.8 CALM 0 0 0 0 1012.2 1009.7 10.8
25/05:30pm 19.7 22.6 18.2 91 1.0 CALM 0 6 0 3 1012.0 1009.4 10.8
25/05:00pm 18.5 19.1 16.8 90 1.1 S 9 13 5 7 1012.1 1009.5 10.8
25/04:30pm 18.2 17.5 16.4 89 1.1 WSW 15 28 8 15 1012.2 1009.7 10.8
25/04:00pm 17.4 18.8 16.3 93 0.7 WSW 4 9 2 5 1011.8 1009.3 10.8
25/03:30pm 18.7 15.3 15.8 83 1.8 NNW 28 44 15 24 1012.1 1009.5 7.0
25/03:25pm 20.5 18.1 15.5 73 3.1 NNW 22 33 12 18 1011.8 1009.3 1.8
25/03:00pm 24.1 21.8 14.2 54 6.0 W 19 24 10 13 1010.4 1007.8 0.0
25/02:30pm 24.0 21.1 12.9 50 6.6 WNW 20 26 11 14 1011.3 1008.8 0.0
25/02:00pm 23.4 19.7 12.7 51 6.3 WNW 24 35 13 19 1012.1 1009.5 0.0
25/01:30pm 24.8 21.9 15.1 54 6.0 NW 24 35 13 19 1011.7 1009.2 0.0
25/01:00pm 26.1 23.9 16.9 57 5.9 NW 24 35 13 19 1012.2 1009.7 0.0
25/12:30pm 23.7 21.6 16.2 63 4.7 WNW 22 30 12 16 1012.6 1010.1 0.0
25/12:00pm 23.1 21.1 16.4 66 4.2 WNW 22 30 12 16 1013.3 1010.8 0.0
25/11:30am 22.5 20.1 17.4 73 3.2 WNW 26 33 14 18 1013.8 1011.3 0.0
25/11:00am 22.2 20.0 16.9 72 3.3 W 24 33 13 18 1013.9 1011.4 0.0
25/10:30am 22.0 19.9 17.2 74 3.0 WNW 24 33 13 18 1014.2 1011.7 0.0
25/10:00am 21.2 18.9 16.6 75 2.9 WNW 24 32 13 17 1014.2 1011.7 0.0
25/09:38am 21.1 19.2 16.7 76 2.7 NW 22 30 12 16 1014.4 1011.9 0.0
25/09:30am 21.7 20.3 17.9 79 2.4 NW 22 32 12 17 1014.3 1011.8 0.0
25/09:04am 19.7 19.5 17.5 87 1.4 WNW 15 22 8 12 1014.5 1012.0 0.0
25/09:00am 19.6 19.0 17.6 88 1.3 NW 17 24 9 13 1014.5 1012.0 14.4
25/08:53am 19.5 18.1 17.1 86 1.5 NW 20 28 11 15 1014.6 1012.1 14.4
25/08:30am 19.4 18.3 17.2 87 1.4 WNW 19 24 10 13 1014.7 1012.2 14.4
25/08:01am 18.8 17.1 17.1 90 1.1 NW 22 26 12 14 1014.7 1012.2 14.2
25/08:00am 18.8 17.4 17.1 90 1.1 NW 20 26 11 14 1014.7 1012.2 14.2
25/07:30am 18.4 17.6 17.2 93 0.7 WNW 17 22 9 12 1014.5 1012.0 14.2
25/07:00am 18.6 19.1 17.4 93 0.8 NW 11 15 6 8 1014.3 1011.8 13.8
25/06:30am 17.7 18.2 17.4 98 0.2 NW 11 15 6 8 1014.1 1011.6 13.8
25/06:17am 17.4 16.9 16.9 97 0.3 NW 15 19 8 10 1014.0 1011.5 13.8
25/06:00am 17.1 17.0 16.9 99 0.1 NNW 13 19 7 10 1013.6 1011.1 13.8
25/05:55am 17.4 17.4 17.2 99 0.1 NNW 13 17 7 9 1013.6 1011.1 13.0
25/05:30am 17.1 17.0 16.9 99 0.1 NNW 13 17 7 9 1013.2 1010.7 12.4
25/05:00am 16.7 16.4 16.5 99 0.1 N 13 19 7 10 1012.9 1010.4 12.4
25/04:30am 16.5 15.8 16.3 99 0.1 N 15 20 8 11 1012.7 1010.2 12.4
25/04:00am 16.6 15.5 16.3 98 0.2 N 17 28 9 15 1012.6 1010.1 12.4
25/03:30am 16.7 15.5 16.1 96 0.4 N 17 24 9 13 1012.3 1009.8 12.4
25/03:00am 16.9 15.8 16.4 97 0.3 N 17 22 9 12 1011.8 1009.3 12.4
25/02:30am 16.8 16.2 16.6 99 0.1 N 15 20 8 11 1011.5 1009.0 12.4
25/02:00am 16.4 15.3 16.4 100 0.0 N 17 22 9 12 1011.7 1009.2 12.4
25/01:30am 16.5 15.0 16.3 99 0.1 N 19 26 10 14 1012.0 1009.4 12.4
25/01:00am 16.6 15.1 16.4 99 0.1 N 19 26 10 14 1012.1 1009.5 12.4
25/12:30am 16.6 15.0 16.4 99 0.1 N 20 28 11 15 1012.2 1009.7 12.4
25/12:00am 16.6 15.1 16.4 99 0.1 N 19 26 10 14 1012.4 1009.9 12.4
 
Date/Time
EST
Temp
°C
App
Temp
°C
Dew
Point
°C
Rel
Hum
%
Delta-T
°C
Wind Press
QNH
hPa
Press
MSL
hPa
Rain since
9am
mm
Dir  Spd
km/h
Gust
km/h
Spd
kts
Gust
kts
24/11:30pm 16.7 15.1 16.5 99 0.1 N 20 26 11 14 1012.8 1010.3 12.4
24/11:00pm 16.7 15.7 16.5 99 0.1 N 17 24 9 13 1013.0 1010.5 12.4
24/10:30pm 16.9 15.8 16.3 96 0.4 N 17 20 9 11 1013.3 1010.8 12.4
24/10:00pm 16.7 16.3 16.2 97 0.3 NNE 13 17 7 9 1013.4 1010.9 12.4
24/09:30pm 16.5 16.1 16.3 99 0.1 NNE 13 19 7 10 1013.2 1010.7 12.4
24/09:00pm 16.6 16.5 16.1 97 0.3 NE 11 19 6 10 1013.1 1010.6 12.4
24/08:30pm 16.8 16.1 16.3 97 0.3 NE 15 20 8 11 1012.9 1010.4 12.4
24/08:00pm 17.0 15.6 16.5 97 0.3 NNE 19 24 10 13 1012.9 1010.4 12.4
24/07:30pm 17.1 16.1 16.6 97 0.3 N 17 24 9 13 1013.0 1010.5 12.4
24/07:00pm 17.4 16.1 16.8 96 0.4 N 19 33 10 18 1013.0 1010.5 12.4
24/06:30pm 17.6 16.9 17.4 99 0.1 NNE 17 22 9 12 1012.7 1010.2 12.4
24/06:00pm 17.5 16.9 17.5 100 0.0 NE 17 22 9 12 1012.6 1010.1 12.4
24/05:30pm 17.7 17.1 17.5 99 0.1 NE 17 20 9 11 1012.5 1010.0 12.4
24/05:23pm 17.7 17.5 17.5 99 0.1 NE 15 19 8 10 1012.6 1010.1 12.4
24/05:00pm 17.8 18.0 17.6 99 0.1 NE 13 19 7 10 1012.5 1010.0 12.4
24/04:55pm 17.8 18.1 17.8 100 0.0 NNE 13 19 7 10 1012.4 1009.9 12.4
24/04:30pm 17.9 18.2 17.9 100 0.0 NE 13 17 7 9 1012.2 1009.7 12.4
24/04:00pm 17.9 18.6 17.9 100 0.0 N 11 17 6 9 1012.2 1009.7 12.4
24/03:51pm 18.0 18.7 18.0 100 0.0 N 11 17 6 9 1012.3 1009.8 12.4
24/03:30pm 17.8 18.1 17.8 100 0.0 N 13 17 7 9 1012.5 1010.0 12.4
24/03:24pm 17.8 18.4 17.8 100 0.0 NNW 11 17 6 9 1012.7 1010.2 12.4
24/03:00pm 17.8 18.1 17.8 100 0.0 NNW 13 17 7 9 1012.9 1010.4 12.4
24/02:50pm 18.0 18.3 18.0 100 0.0 NNW 13 19 7 10 1012.9 1010.4 12.2
24/02:30pm 17.9 18.2 17.9 100 0.0 NNW 13 20 7 11 1013.3 1010.8 11.8
24/02:00pm 17.9 17.8 17.9 100 0.0 NNW 15 20 8 11 1013.9 1011.4 10.6
24/01:30pm 17.9 17.4 17.9 100 0.0 NNW 17 20 9 11 1014.0 1011.5 10.4
24/01:00pm 17.8 16.9 17.8 100 0.0 NNW 19 24 10 13 1014.4 1011.9 10.0
24/12:34pm 17.4 16.3 17.4 100 0.0 NNW 19 24 10 13 1014.8 1012.3 9.4
24/12:30pm 17.4 16.3 17.4 100 0.0 NNW 19 24 10 13 1014.9 1012.5 9.2
24/12:00pm 17.4 16.3 17.4 100 0.0 NNW 19 24 10 13 1015.0 1012.6 6.0
24/11:55am 17.6 16.6 17.6 100 0.0 NNW 19 24 10 13 1015.1 1012.7 5.2
24/11:30am 17.9 17.7 17.7 99 0.1 N 15 20 8 11 1015.4 1012.9 2.0
24/11:22am 18.1 17.6 17.9 99 0.1 NNW 17 22 9 12 1015.4 1012.9 1.2
24/11:00am 18.7 17.6 17.2 91 0.9 N 19 26 10 14 1015.5 1013.0 0.2
24/10:30am 19.3 17.1 16.0 81 2.0 N 22 32 12 17 1015.8 1013.3 0.0
24/10:00am 19.0 17.3 16.2 84 1.7 N 20 26 11 14 1015.8 1013.3 0.0
24/09:30am 19.3 17.8 16.2 82 1.9 N 19 30 10 16 1016.1 1013.6 0.0
24/09:00am 19.0 17.2 15.9 82 1.9 N 20 32 11 17 1016.2 1013.7 3.4
24/08:56am 19.3 17.6 16.3 83 1.8 N 20 28 11 15 1016.2 1013.7 3.4
24/08:30am 18.9 17.6 16.7 87 1.4 N 19 26 10 14 1016.2 1013.7 3.4
24/08:07am 18.2 16.8 16.9 92 0.8 N 20 35 11 19 1016.0 1013.5 3.4
24/08:00am 17.9 17.7 17.6 98 0.2 NNE 15 20 8 11 1016.1 1013.6 3.4
24/07:30am 16.9 16.7 16.7 99 0.1 NE 13 19 7 10 1016.3 1013.9 3.4
24/07:28am 16.9 16.3 16.7 99 0.1 NE 15 19 8 10 1016.3 1013.9 3.4
24/07:12am 16.7 16.4 16.4 98 0.2 NE 13 19 7 10 1016.1 1013.6 3.2
24/07:00am 17.3 16.1 16.0 92 0.8 NNE 17 22 9 12 1016.0 1013.5 2.4
24/06:30am 17.3 15.5 15.6 90 1.0 NNE 19 24 10 13 1016.0 1013.5 2.4
24/06:00am 17.1 15.8 15.8 92 0.8 NNE 17 24 9 13 1015.8 1013.3 2.4
24/05:30am 16.6 15.8 16.0 96 0.4 NE 15 19 8 10 1015.7 1013.2 2.4
24/05:00am 16.7 15.7 15.7 94 0.6 NNE 15 20 8 11 1015.5 1013.0 2.4
24/04:30am 16.6 14.9 15.8 95 0.5 NNE 19 24 10 13 1015.4 1012.9 2.4
24/04:00am 16.5 15.3 16.0 97 0.3 NNE 17 24 9 13 1015.0 1012.6 2.4
24/03:30am 16.4 15.1 15.8 96 0.4 N 17 20 9 11 1015.1 1012.7 2.4
24/03:00am 16.4 16.4 15.3 93 0.7 NE 9 13 5 7 1015.1 1012.7 2.2
24/02:57am 16.2 16.3 15.6 96 0.4 NE 9 13 5 7 1015.1 1012.7 2.2
24/02:39am 16.3 15.9 15.2 93 0.7 N 11 17 6 9 1015.6 1013.1 1.8
24/02:30am 16.2 15.7 15.9 98 0.2 NNE 13 17 7 9 1015.4 1012.9 0.6
24/02:00am 16.8 14.7 14.6 87 1.3 ENE 19 24 10 13 1014.3 1011.8 0.0
24/01:30am 16.8 15.7 15.3 91 0.9 NE 15 20 8 11 1014.8 1012.3 0.0
24/01:00am 16.8 15.9 15.8 94 0.6 ENE 15 20 8 11 1015.0 1012.6 0.0
24/12:30am 16.5 15.7 16.0 97 0.3 ENE 15 19 8 10 1015.6 1013.1 0.0
24/12:00am 16.9 15.6 15.9 94 0.6 NE 17 22 9 12 1015.9 1013.4 0.0
 
Date/Time
EST
Temp
°C
App
Temp
°C
Dew
Point
°C
Rel
Hum
%
Delta-T
°C
Wind Press
QNH
hPa
Press
MSL
hPa
Rain since
9am
mm
Dir  Spd
km/h
Gust
km/h
Spd
kts
Gust
kts
23/11:30pm 17.2 15.4 15.9 92 0.8 ENE 20 24 11 13 1015.7 1013.2 0.0
23/11:00pm 17.4 15.2 15.9 91 0.9 ENE 22 30 12 16 1015.9 1013.4 0.0
23/10:30pm 17.5 15.6 15.8 90 1.0 ENE 20 26 11 14 1015.9 1013.4 0.0
23/10:00pm 17.9 16.1 16.1 89 1.1 ENE 20 28 11 15 1016.3 1013.9 0.0
23/09:30pm 17.9 15.4 16.1 89 1.1 E 24 32 13 17 1015.9 1013.4 0.0
23/09:00pm 18.2 16.2 16.4 89 1.1 E 22 28 12 15 1016.1 1013.6 0.0
23/08:30pm 18.7 16.0 16.5 87 1.4 E 26 32 14 17 1015.8 1013.3 0.0
23/08:00pm 19.6 16.8 16.4 82 2.0 E 26 35 14 19 1015.6 1013.1 0.0
23/07:30pm 20.4 17.3 15.6 74 2.9 E 26 35 14 19 1015.5 1013.0 0.0
23/07:00pm 21.3 18.3 13.7 62 4.5 E 22 32 12 17 1015.5 1013.0 0.0
23/06:30pm 21.4 19.0 13.8 62 4.5 ENE 19 26 10 14 1015.5 1013.0 0.0
23/06:00pm 22.0 19.5 14.1 61 4.7 ENE 20 26 11 14 1015.0 1012.6 0.0
23/05:30pm 22.4 20.2 14.3 60 4.9 ENE 19 24 10 13 1014.9 1012.5 0.0
23/05:00pm 22.6 20.8 14.4 60 5.0 ENE 17 20 9 11 1014.7 1012.2 0.0
23/04:30pm 22.8 20.4 14.4 59 5.1 ENE 20 28 11 15 1014.5 1012.0 0.0
23/04:00pm 23.1 20.8 14.7 59 5.1 NE 20 28 11 15 1014.4 1011.9 0.0
23/03:30pm 23.4 21.5 15.2 60 5.0 NE 19 24 10 13 1014.5 1012.0 0.0
23/03:00pm 23.3 21.2 15.1 60 5.0 ENE 20 28 11 15 1014.7 1012.2 0.0
23/02:30pm 23.2 21.4 15.5 62 4.8 ENE 19 26 10 14 1015.1 1012.7 0.0
23/02:00pm 22.8 20.3 15.1 62 4.7 ENE 22 28 12 15 1015.5 1013.0 0.0
23/01:30pm 22.7 20.9 15.5 64 4.4 ENE 19 26 10 14 1016.0 1013.5 0.0
23/01:00pm 21.6 19.4 14.5 64 4.3 NE 19 26 10 14 1016.7 1014.3 0.0
23/12:30pm 21.7 21.2 15.8 69 3.6 ENE 13 20 7 11 1017.2 1014.7 0.0
23/12:00pm 20.8 19.2 15.1 70 3.5 ENE 17 24 9 13 1017.6 1015.1 0.0
23/11:30am 20.6 19.0 14.9 70 3.4 ENE 17 22 9 12 1017.8 1015.4 0.0
23/11:00am 20.0 18.4 15.0 73 3.0 ENE 17 20 9 11 1018.2 1015.8 0.0
23/10:30am 19.5 18.2 14.7 74 2.9 E 15 20 8 11 1018.6 1016.1 0.0
23/10:00am 19.2 17.3 15.3 78 2.4 ENE 19 22 10 12 1018.4 1016.0 0.0
23/09:30am 19.7 18.2 15.4 76 2.6 ENE 17 22 9 12 1018.8 1016.3 0.0
23/09:00am 19.5 17.8 16.2 81 2.0 ENE 20 28 11 15 1018.6 1016.1 7.0
23/08:49am 19.3 17.7 16.0 81 2.0 ENE 19 26 10 14 1018.4 1016.0 7.0
23/08:30am 18.4 16.2 16.0 86 1.5 ENE 22 28 12 15 1018.3 1015.9 7.0
23/08:01am 17.4 14.8 15.9 91 0.9 ENE 24 32 13 17 1018.0 1015.6 7.0
23/08:00am 17.5 14.9 16.0 91 0.9 ENE 24 32 13 17 1018.0 1015.6 7.0
23/07:59am 17.3 15.0 15.6 90 1.0 ENE 22 30 12 16 1018.1 1015.7 7.0
23/07:30am 16.5 15.8 16.3 99 0.1 ENE 15 19 8 10 1018.6 1016.1 7.0
23/07:00am 16.0 14.7 15.8 99 0.1 ENE 17 24 9 13 1018.4 1016.0 7.0
23/06:30am 16.1 14.8 15.9 99 0.1 ENE 17 22 9 12 1017.9 1015.5 7.0
23/06:20am 16.0 14.7 15.8 99 0.1 ENE 17 22 9 12 1017.7 1015.3 7.0
23/06:00am 15.8 14.1 15.8 100 0.0 ENE 19 22 10 12 1017.4 1014.9 7.0
23/05:31am 15.6 13.8 15.6 100 0.0 ENE 19 26 10 14 1017.4 1014.9 7.0
23/05:30am 15.6 13.8 15.6 100 0.0 ENE 19 26 10 14 1017.4 1014.9 7.0
23/05:00am 15.4 13.0 15.4 100 0.0 E 22 28 12 15 1016.7 1014.3 7.0
23/04:30am 15.3 12.5 15.3 100 0.0 E 24 28 13 15 1016.2 1013.7 7.0
23/04:00am 15.3 13.2 15.3 100 0.0 ENE 20 26 11 14 1016.2 1013.7 7.0
23/03:35am 15.5 13.4 15.3 99 0.1 E 20 24 11 13 1016.4 1014.0 7.0
23/03:30am 15.5 13.4 15.3 99 0.1 E 20 24 11 13 1016.3 1013.9 7.0
23/03:23am 15.6 13.6 15.4 99 0.1 E 20 24 11 13 1016.5 1014.1 7.0
23/03:00am 15.7 14.3 15.5 99 0.1 ENE 17 24 9 13 1016.6 1014.2 7.0
23/02:44am 15.7 14.3 15.5 99 0.1 ENE 17 22 9 12 1016.7 1014.3 7.0
23/02:35am 15.7 14.3 15.5 99 0.1 ENE 17 22 9 12 1016.9 1014.4 7.0
23/02:30am 15.7 14.3 15.5 99 0.1 ENE 17 22 9 12 1016.7 1014.3 7.0
23/02:00am 15.6 13.8 15.6 100 0.0 ENE 19 26 10 14 1016.7 1014.3 7.0
23/01:30am 15.7 13.8 15.7 100 0.0 ENE 20 30 11 16 1017.0 1014.5 7.0
23/01:00am 15.8 13.1 15.6 99 0.1 ENE 24 32 13 17 1017.2 1014.7 7.0
23/12:30am 16.0 14.1 15.8 99 0.1 E 20 28 11 15 1017.6 1015.1 7.0
23/12:00am 16.1 14.3 15.9 99 0.1 ENE 20 30 11 16 1017.6 1015.1 7.0

Latest Capital City Observations: Canberra | Sydney | Melbourne | Brisbane | Adelaide | Perth | Hobart | Darwin

Other formats

Comma delimited format used in spreadsheet applications
http://www.bom.gov.au/fwo/IDQ60901/IDQ60901.95551.axf

JavaScript Object Notation format (JSON) in row-major order
http://www.bom.gov.au/fwo/IDQ60901/IDQ60901.95551.json

Data quality

Most of these data are generated automatically and are frequently updated. Quality checks on data are not normally performed. It is possible for incorrect values to appear. Refer to information at About Latest Weather Observations and please check the disclaimer before using these data.